HisReef.com

Celebrating the Awesome Beauty of the Lord's Tropical Reef in a Home Marine Aquarium

Water Parameters Log

 

Date Time Temp Salinity PH Alkalinity Calcium Ammonia Nitrite Nitrate Phosphate
10/23/2004 3:15 PM 79.6 1.024 8.2 3.09 390 0.00 0.00 0.00 0.00
9/12/2004 2:00 PM 79.0 1.024 8.1 3.66 420 0.00 0.00 0.00 0.00
8/22/2004 3:45 PM 79.0 1.024 8.1 3.71 415 0.00 0.00 0.00 0.07
7/10/2004 12:30 PM 78.8 1.025 8.1 3.89 440 0.00 0.00 0.00 0.00
6/30/2004 10:15 AM 79.2 1.025 8.0 4.15 390 0.00 0.00 0.00 0.05
6/7/2004 5:30 PM 79.2 1.025 8.1 3.83 410 0.00 0.00 0.00 0.00
5/23/2004 2:30 PM 79.0 1.025 8.1 3.84 420 0.00 0.00 0.00 0.00
5/15/2004 10:15 AM 79.7 1.025 8.0 4.05 430 0.00 0.00 0.00 0.00
5/3/2004 8:30 PM 79.4 1.025 8.1 3.43 475 0.00 0.00 0.00 0.00
4/25/2004 3:30 PM 79.0 1.025 8.1 3.83 475 0.00 0.00 0.00 0.00
4/21/2004 8:00 PM 79.0 1.025   0.00 460        
4/13/2004 9:00 PM 79.0 1.025   0.00 395        
4/9/2004 10:00 AM 79.0 1.026 8.2 4.11 400 0.00     0.01
4/5/2004 10:30 PM 78.7 1.026 8.1 4.00 410 0.00 0.00 0.00 0.03
4/3/2004 10:30 AM 80.3 1.026 < 8.2 4.00 410 0.00 0.00 0.00 0.03
3/28/2004 2:45 PM 80.3 1.026 8.1 4.30 395 0.00 0.00 0.00 0.03
3/25/2004 6:30 PM 80.1 1.026 < 8.3 3.80 400 0.00 0.01 0.00 0.03
3/19/2004 3:30 PM 80.1 1.026 8.2 4.50 400       0.03
3/14/2004 2:00 PM 80.1   8.2 4.85 390        
3/14/2004 9:45 PM 80.3   8.2 4.28 395        
3/13/2004 9:30 PM 79.7 1.026 8.4 4.34 375 0.00 0.00 0.01 0.03
3/11/2004 7:00 PM 79.0 1.026 8.1 3.60 340 0.00 0.01 0.10 0.03
3/7/2004 9:30 PM 79.7 1.026 8.1   350 0.00 0.01 1.00 0.03
3/5/2004 7:15 PM 79.2 1.026       0.00 0.02 2.00  
3/2/2004 8:30 PM 80.5 1.026 8.0 3.20 340 0.00 0.02 1.50 0.20
2/29/2004 9:45 PM 79.7 1.026 8.0 3.43 340   0.02 2.50 0.10
2/28/2004 10:00 PM 79.6 1.026 8.0 3.10 390 0.00 0.02 2.00 0.30
2/27/2004 11:30 PM 79.4 1.026 8.0 3.40 380 0.00 0.03 3.00 0.40
2/26/2004 10:45 AM 79.0 1.026 8.0 3.20 375 0.00 0.03 3.00 0.40
2/25/2004 9:00 PM 79.2 1.027 8.1 3.40 390 0.00 0.05 2.50 0.40
2/24/2004 10:00 PM 79.4 1.027 8.1 3.40 390 0.00 0.06 3.50 0.50
2/23/2004 9:15 PM 79.4 1.027 8.1 3.20 390 0.00 0.10 4.00 0.50
2/22/2004 10:10 PM 79.0 1.027 < 8.0 3.40 390 0.00 0.15 4.00 0.50
2/21/2004 10:15 PM 79.6 1.027 8.1 3.40 395 0.00 0.15 5.00 0.50
2/20/2004 10:00 PM 79.4 1.028 8.1 3.30 390 0.00 0.20 3.50 0.75
2/19/2004 9:45 PM 79.2 1.028 8.0 3.20 400 0.00 0.50 10.00 0.50
2/18/2004 8:30 PM 79.0 1.027 7.9 3.20 400 0.00 0.50 15.00 0.75
2/17/2004 8:45 PM 78.8 1.027 7.9 3.10 400 0.20 0.75 15.00 1.00
2/16/2004 9:00 PM 79.0 1.027 7.9 3.10 400 0.20 1.00 35.00 0.50
2/15/2004 9:15 PM 79.0 1.027 7.9 3.10 400 0.20 2.00 70.00 1.00
2/14/2004 8:00 PM 79.4 1.027 7.9 3.10 390 0.20 3.50 75.00 1.00
2/13/2004 10:00 PM 79.0 1.027 7.9 2.90 390 0.20 4.00 90.00 1.00
2/12/2004 10:15 PM 78.7 1.027 7.9 2.80 385 0.20 4.00 100.00 1.00
2/11/2004 9:15 PM 79.0 1.027 7.9 2.80 380 0.20 4.00 100.00  
2/10/2004 7:45 PM 80.1 1.027 7.9 2.60 360 0.20 4.00 100.00  
2/9/2004 9:20 PM 80.1 1.027 7.9 2.60 390 0.20 4.00 100.00  
2/8/2004 1:45 PM 80.1 1.027 7.8 3.00 385 1.10 4.00 100.00  
2/7/2004 10:00 AM 79.0 1.027 7.9 3.00 375 1.40 2.50 55.00  
2/6/2004 3:02 PM 78.7 1.027 7.9 3.60 360 1.30 2.00 25.00  
2/5/2004 6:30 PM 78.8 1.027 7.8 3.00 370